Westhope, North Dakota
Current Conditions -  °F | °C
As of 8:58 PM on Saturday 25 Oct 2014 (Local Time) from KMIB Reporting Station
Clear Clear  
Wind Chill: 36°   Ceiling: Unl
Heat Index: 42°   Visibility: 10mi
Dew Point: 30°   Wind: 9mph
Humidity: 64%   Direction: 150°SSE
Pressure: 29.94"   Gusts: NA
Location:  48.91°N, 101.02°W
Report Text: KMIB 260158Z AUTO 15008KT 10SM CLR 05/M01 A2994 RMK AO2 SLP158 T00541010 $
Loading
Personal Weather Stations






























Interactive Weather Map
Tropical Storm Tracking
New forecast layout! Learn more

10-Day Weather Forecast

Advertisements
Track Severe Weather on mobile